Concord, Arkansas
Current Conditions -  °F | °C
As of 12:15 PM on Friday 28 Nov 2014 (Local Time) from KBVX Reporting Station
Clear Clear  
Wind Chill: 52°   Ceiling: Unl
Heat Index: 52°   Visibility: 10mi
Dew Point: 30°   Wind: 13mph
Humidity: 44%   Direction: 200°SSW
Pressure: 30.2"   Gusts: 20mph
Location:  35.66°N, 91.85°W
Report Text: KBVX 281815Z AUTO 20011G17KT 10SM CLR 11/M01 A3020 RMK AO1
Loading
Personal Weather Stations






























Interactive Weather Map New forecast layout! Learn more

10-Day Weather Forecast

Advertisements
Track Severe Weather on mobile